Time,TemperatureF,DewpointF,PressureIn,WindDirection,WindDirectionDegrees,WindSpeedMPH,WindSpeedGustMPH,Humidity,HourlyPrecipIn,Conditions,Clouds,dailyrainin,SoftwareType,DateUTC
2013-11-09 00:13:00,32.0,26.0,-100.00,SW,236,0.0,0.0,79,0.00,,,0.00,,2013-11-09 05:13:00,
2013-11-09 00:23:00,32.0,26.0,-100.00,SW,236,0.0,0.0,79,0.00,,,0.00,,2013-11-09 05:23:00,
2013-11-09 00:53:00,31.0,26.0,-100.00,NNW,339,0.0,0.0,83,0.00,,,0.00,,2013-11-09 05:53:00,
2013-11-09 01:13:00,29.0,26.0,-100.00,WNW,294,0.0,0.0,87,0.00,,,0.00,,2013-11-09 06:13:00,
2013-11-09 01:23:00,29.0,26.0,-100.00,WNW,294,0.0,0.0,87,0.00,,,0.00,,2013-11-09 06:23:00,
2013-11-09 01:54:00,30.0,26.0,-100.00,SSE,168,0.0,0.0,82,0.00,,,0.00,,2013-11-09 06:54:00,
2013-11-09 02:12:00,29.0,25.0,-100.00,WNW,294,1.0,2.0,84,0.00,,,0.00,,2013-11-09 07:12:00,
2013-11-09 02:22:00,29.0,25.0,-100.00,WNW,294,1.0,2.0,84,0.00,,,0.00,,2013-11-09 07:22:00,
2013-11-09 02:52:00,30.0,27.0,-100.00,WNW,287,0.0,1.0,87,0.00,,,0.00,,2013-11-09 07:52:00,
2013-11-09 03:12:00,29.0,26.0,-100.00,WSW,254,0.0,1.0,90,0.00,,,0.00,,2013-11-09 08:12:00,
2013-11-09 03:22:00,29.0,26.0,-100.00,WSW,254,0.0,1.0,90,0.00,,,0.00,,2013-11-09 08:22:00,
2013-11-09 03:52:00,29.0,26.0,-100.00,NNW,340,1.0,2.0,90,0.00,,,0.00,,2013-11-09 08:52:00,
2013-11-09 04:12:00,30.0,27.0,-100.00,North,354,2.0,3.0,88,0.00,,,0.00,,2013-11-09 09:12:00,
2013-11-09 04:22:00,30.0,27.0,-100.00,South,174,3.0,5.0,89,0.00,,,0.00,,2013-11-09 09:22:00,
2013-11-09 04:33:00,30.0,27.0,-100.00,South,174,3.0,5.0,89,0.00,,,0.00,,2013-11-09 09:33:00,
2013-11-09 04:53:00,30.0,26.0,-100.00,WSW,258,2.0,3.0,85,0.00,,,0.00,,2013-11-09 09:53:00,
2013-11-09 05:13:00,28.0,26.0,-100.00,NNW,337,0.0,1.0,92,0.00,,,0.00,,2013-11-09 10:13:00,
2013-11-09 05:23:00,29.0,26.0,-100.00,SSE,161,2.0,2.0,91,0.00,,,0.00,,2013-11-09 10:23:00,
2013-11-09 05:32:00,29.0,26.0,-100.00,SSE,161,2.0,2.0,91,0.00,,,0.00,,2013-11-09 10:32:00,
2013-11-09 05:52:00,29.0,26.0,-100.00,SSE,160,2.0,3.0,87,0.00,,,0.00,,2013-11-09 10:52:00,
2013-11-09 06:12:00,29.0,26.0,-100.00,SSE,160,0.0,1.0,89,0.00,,,0.00,,2013-11-09 11:12:00,
2013-11-09 06:22:00,29.0,26.0,-100.00,South,191,2.0,3.0,90,0.00,,,0.00,,2013-11-09 11:22:00,
2013-11-09 06:33:00,29.0,26.0,-100.00,South,191,2.0,3.0,90,0.00,,,0.00,,2013-11-09 11:33:00,
2013-11-09 06:52:00,27.0,25.0,-100.00,SW,215,1.0,2.0,91,0.00,,,0.00,,2013-11-09 11:52:00,
2013-11-09 07:12:00,27.0,25.0,-100.00,WNW,289,0.0,1.0,94,0.00,,,0.00,,2013-11-09 12:12:00,
2013-11-09 07:22:00,27.0,25.0,-100.00,WNW,289,0.0,1.0,94,0.00,,,0.00,,2013-11-09 12:22:00,
2013-11-09 07:52:00,28.0,26.0,-100.00,WSW,239,1.0,2.0,92,0.00,,,0.00,,2013-11-09 12:52:00,
2013-11-09 08:11:00,28.0,26.0,-100.00,WSW,239,1.0,2.0,92,0.00,,,0.00,,2013-11-09 13:11:00,
2013-11-09 08:52:00,33.0,28.0,-100.00,NW,320,0.0,1.0,84,0.00,,,0.00,,2013-11-09 13:52:00,
2013-11-09 10:54:00,46.0,28.0,-100.00,South,189,8.0,10.0,49,0.00,,,0.00,,2013-11-09 15:54:00,
2013-11-09 11:12:00,47.0,29.0,-100.00,South,181,9.0,10.0,51,0.00,,,0.00,,2013-11-09 16:12:00,
2013-11-09 11:24:00,47.0,29.0,-100.00,South,181,9.0,10.0,51,0.00,,,0.00,,2013-11-09 16:24:00,
2013-11-09 11:43:00,49.0,27.0,-100.00,South,189,9.0,13.0,43,0.00,,,0.00,,2013-11-09 16:43:00,
2013-11-09 11:52:00,49.0,27.0,-100.00,South,189,9.0,13.0,43,0.00,,,0.00,,2013-11-09 16:52:00,
2013-11-09 12:13:00,50.0,27.0,-100.00,South,185,10.0,13.0,41,0.00,,,0.00,,2013-11-09 17:13:00,
2013-11-09 12:24:00,50.0,27.0,-100.00,South,185,10.0,13.0,41,0.00,,,0.00,,2013-11-09 17:24:00,
2013-11-09 12:43:00,50.0,27.0,-100.00,South,172,12.0,16.0,41,0.00,,,0.00,,2013-11-09 17:43:00,
2013-11-09 12:52:00,52.0,27.0,-100.00,South,179,12.0,17.0,38,0.00,,,0.00,,2013-11-09 17:52:00,
2013-11-09 13:12:00,52.0,28.0,-100.00,South,172,11.0,16.0,39,0.00,,,0.00,,2013-11-09 18:12:00,
2013-11-09 13:23:00,52.0,28.0,-100.00,South,172,11.0,16.0,39,0.00,,,0.00,,2013-11-09 18:23:00,
2013-11-09 13:52:00,54.0,29.0,-100.00,South,182,9.0,11.0,38,0.00,,,0.00,,2013-11-09 18:52:00,
2013-11-09 14:12:00,55.0,27.0,-100.00,South,171,12.0,15.0,35,0.00,,,0.00,,2013-11-09 19:12:00,
2013-11-09 14:23:00,55.0,27.0,-100.00,South,171,12.0,15.0,35,0.00,,,0.00,,2013-11-09 19:23:00,
2013-11-09 14:52:00,56.0,27.0,-100.00,South,178,12.0,18.0,33,0.00,,,0.00,,2013-11-09 19:52:00,
2013-11-09 15:13:00,56.0,27.0,-100.00,South,191,12.0,16.0,32,0.00,,,0.00,,2013-11-09 20:13:00,
2013-11-09 15:22:00,56.0,27.0,-100.00,South,191,12.0,16.0,32,0.00,,,0.00,,2013-11-09 20:22:00,
2013-11-09 15:52:00,55.0,29.0,-100.00,South,171,8.0,11.0,36,0.00,,,0.00,,2013-11-09 20:52:00,
2013-11-09 16:12:00,54.0,28.0,-100.00,South,172,8.0,10.0,37,0.00,,,0.00,,2013-11-09 21:12:00,
2013-11-09 16:22:00,54.0,29.0,-100.00,South,188,8.0,10.0,38,0.00,,,0.00,,2013-11-09 21:22:00,
2013-11-09 16:34:00,54.0,29.0,-100.00,South,188,8.0,10.0,38,0.00,,,0.00,,2013-11-09 21:34:00,
2013-11-09 16:54:00,53.0,28.0,-100.00,South,179,9.0,11.0,38,0.00,,,0.00,,2013-11-09 21:54:00,
2013-11-09 17:13:00,52.0,28.0,-100.00,SSE,165,8.0,11.0,40,0.00,,,0.00,,2013-11-09 22:13:00,
2013-11-09 17:24:00,52.0,28.0,-100.00,SSE,165,8.0,11.0,40,0.00,,,0.00,,2013-11-09 22:24:00,
2013-11-09 17:54:00,51.0,29.0,-100.00,South,185,6.0,9.0,43,0.00,,,0.00,,2013-11-09 22:54:00,
2013-11-09 18:13:00,50.0,29.0,-100.00,South,179,5.0,7.0,44,0.00,,,0.00,,2013-11-09 23:13:00,
2013-11-09 18:22:00,49.0,29.0,-100.00,South,182,6.0,7.0,46,0.00,,,0.00,,2013-11-09 23:22:00,
2013-11-09 18:33:00,49.0,29.0,-100.00,South,182,6.0,7.0,46,0.00,,,0.00,,2013-11-09 23:33:00,
2013-11-09 18:53:00,49.0,29.0,-100.00,South,175,6.0,7.0,46,0.00,,,0.00,,2013-11-09 23:53:00,
2013-11-09 19:12:00,49.0,28.0,-100.00,South,176,8.0,10.0,45,0.00,,,0.00,,2013-11-10 00:12:00,
2013-11-09 19:22:00,49.0,28.0,-100.00,South,186,7.0,9.0,43,0.00,,,0.00,,2013-11-10 00:22:00,
2013-11-09 19:32:00,49.0,28.0,-100.00,South,186,7.0,9.0,43,0.00,,,0.00,,2013-11-10 00:32:00,
2013-11-09 19:52:00,50.0,29.0,-100.00,South,182,9.0,13.0,44,0.00,,,0.00,,2013-11-10 00:52:00,
2013-11-09 20:12:00,49.0,27.0,-100.00,South,181,7.0,12.0,42,0.00,,,0.00,,2013-11-10 01:12:00,
2013-11-09 20:22:00,49.0,28.0,-100.00,South,182,6.0,9.0,43,0.00,,,0.00,,2013-11-10 01:22:00,
2013-11-09 20:32:00,49.0,28.0,-100.00,South,182,6.0,9.0,43,0.00,,,0.00,,2013-11-10 01:32:00,
2013-11-09 21:12:00,48.0,28.0,-100.00,SSE,168,6.0,7.0,47,0.00,,,0.00,,2013-11-10 02:12:00,
2013-11-09 21:22:00,51.0,27.0,-100.00,South,171,8.0,12.0,39,0.00,,,0.00,,2013-11-10 02:22:00,
2013-11-09 21:32:00,51.0,27.0,-100.00,South,171,8.0,12.0,39,0.00,,,0.00,,2013-11-10 02:32:00,
2013-11-09 21:52:00,50.0,28.0,-100.00,South,175,7.0,9.0,42,0.00,,,0.00,,2013-11-10 02:52:00,
2013-11-09 22:12:00,49.0,27.0,-100.00,South,171,6.0,13.0,43,0.00,,,0.00,,2013-11-10 03:12:00,
2013-11-09 23:02:00,-999.0,-99.9,-100.00,SSW,205,6.0,8.0,-999,-99.99,,,-99.99,,2013-11-10 04:02:00,